Time,TemperatureF,DewpointF,PressureIn,WindDirection,WindDirectionDegrees,WindSpeedMPH,WindSpeedGustMPH,Humidity,HourlyPrecipIn,Conditions,Clouds,dailyrainin,SoftwareType,DateUTC
2013-09-22 00:00:00,55.0,42.0,-100.00,SW,217,15.0,28.0,62,0.00,,,0.00,,2013-09-22 06:00:00,
2013-09-22 00:22:00,56.0,44.0,-100.00,SW,222,23.0,28.0,63,0.00,,,0.00,,2013-09-22 06:22:00,
2013-09-22 00:30:00,54.0,42.0,-100.00,SW,217,16.0,20.0,62,0.00,,,0.00,,2013-09-22 06:30:00,
2013-09-22 00:42:00,56.0,44.0,-100.00,SW,217,20.0,24.0,65,0.00,,,0.00,,2013-09-22 06:42:00,
2013-09-22 00:52:00,55.0,42.0,-100.00,SW,217,15.0,28.0,62,0.00,,,0.00,,2013-09-22 06:52:00,
2013-09-22 01:21:00,54.0,42.0,-100.00,SW,217,16.0,20.0,62,0.00,,,0.00,,2013-09-22 07:21:00,
2013-09-22 01:52:00,54.0,42.0,-100.00,SW,220,15.0,22.0,62,0.00,,,0.00,,2013-09-22 07:52:00,
2013-09-22 02:03:00,54.0,42.0,-100.00,SW,220,15.0,22.0,62,0.00,,,0.00,,2013-09-22 08:03:00,
2013-09-22 02:22:00,54.0,41.0,-100.00,SW,220,17.0,22.0,61,0.00,,,0.00,,2013-09-22 08:22:00,
2013-09-22 02:42:00,54.0,41.0,-100.00,SW,217,14.0,19.0,61,0.00,,,0.00,,2013-09-22 08:42:00,
2013-09-22 02:52:00,54.0,41.0,-100.00,SW,217,18.0,22.0,61,0.00,,,0.00,,2013-09-22 08:52:00,
2013-09-22 03:11:00,54.0,41.0,-100.00,SW,217,15.0,18.0,61,0.00,,,0.00,,2013-09-22 09:11:00,
2013-09-22 03:43:00,53.0,41.0,-100.00,SSW,206,10.0,13.0,63,0.00,,,0.00,,2013-09-22 09:43:00,
2013-09-22 04:12:00,53.0,41.0,-100.00,SSW,200,10.0,14.0,63,0.00,,,0.00,,2013-09-22 10:12:00,
2013-09-22 04:44:00,52.0,41.0,-100.00,SSE,148,5.0,6.0,68,0.00,,,0.00,,2013-09-22 10:44:00,
2013-09-22 05:12:00,50.0,41.0,-100.00,SSE,147,5.0,6.0,71,0.00,,,0.00,,2013-09-22 11:12:00,
2013-09-22 05:42:00,50.0,41.0,-100.00,South,182,6.0,7.0,71,0.00,,,0.00,,2013-09-22 11:42:00,
2013-09-22 06:12:00,50.0,41.0,-100.00,SSW,193,5.0,8.0,70,0.00,,,0.00,,2013-09-22 12:12:00,
2013-09-22 06:42:00,50.0,41.0,-100.00,South,178,5.0,6.0,72,0.00,,,0.00,,2013-09-22 12:42:00,
2013-09-22 07:12:00,49.0,41.0,-100.00,SSE,158,4.0,6.0,73,0.00,,,0.00,,2013-09-22 13:12:00,
2013-09-22 07:42:00,51.0,41.0,-100.00,SSW,209,6.0,9.0,67,0.00,,,0.00,,2013-09-22 13:42:00,
2013-09-22 08:11:00,51.0,41.0,-100.00,SW,217,11.0,14.0,68,0.00,,,0.00,,2013-09-22 14:11:00,
2013-09-22 08:42:00,51.0,42.0,-100.00,SW,226,11.0,15.0,71,0.00,,,0.00,,2013-09-22 14:42:00,
2013-09-22 09:12:00,51.0,43.0,-100.00,SW,223,13.0,20.0,72,0.00,,,0.00,,2013-09-22 15:12:00,
2013-09-22 09:44:00,52.0,43.0,-100.00,SW,233,15.0,21.0,72,0.00,,,0.00,,2013-09-22 15:44:00,
2013-09-22 10:13:00,53.0,44.0,-100.00,WSW,248,16.0,19.0,72,0.00,,,0.00,,2013-09-22 16:13:00,
2013-09-22 10:43:00,54.0,44.0,-100.00,WSW,246,13.0,16.0,68,0.00,,,0.00,,2013-09-22 16:43:00,
2013-09-22 11:12:00,55.0,44.0,-100.00,WSW,251,14.0,16.0,67,0.00,,,0.00,,2013-09-22 17:12:00,
2013-09-22 11:43:00,56.0,44.0,-100.00,WSW,257,11.0,13.0,62,0.00,,,0.00,,2013-09-22 17:43:00,
2013-09-22 12:13:00,58.0,43.0,-100.00,WSW,250,11.0,14.0,59,0.00,,,0.00,,2013-09-22 18:13:00,
2013-09-22 12:42:00,59.0,44.0,-100.00,SW,224,14.0,20.0,59,0.00,,,0.00,,2013-09-22 18:42:00,
2013-09-22 13:11:00,59.0,44.0,-100.00,SW,216,15.0,17.0,56,0.00,,,0.00,,2013-09-22 19:11:00,
2013-09-22 13:42:00,61.0,44.0,-100.00,SW,234,13.0,17.0,53,0.00,,,0.00,,2013-09-22 19:42:00,
2013-09-22 14:12:00,61.0,44.0,-100.00,SW,220,17.0,20.0,53,0.00,,,0.00,,2013-09-22 20:12:00,
2013-09-22 14:22:00,61.0,43.0,-100.00,SW,222,16.0,17.0,51,0.00,,,0.00,,2013-09-22 20:22:00,
2013-09-22 14:42:00,62.0,43.0,-100.00,SW,232,15.0,19.0,50,0.00,,,0.00,,2013-09-22 20:42:00,
2013-09-22 15:12:00,64.0,43.0,-100.00,WSW,246,14.0,17.0,47,0.00,,,0.00,,2013-09-22 21:12:00,
2013-09-22 15:44:00,65.0,42.0,-100.00,SW,236,16.0,24.0,43,0.00,,,0.00,,2013-09-22 21:44:00,
2013-09-22 16:14:00,67.0,43.0,-100.00,SW,220,15.0,19.0,42,0.00,,,0.00,,2013-09-22 22:14:00,
2013-09-22 16:24:00,66.0,42.0,-100.00,WSW,247,16.0,19.0,41,0.00,,,0.00,,2013-09-22 22:24:00,
2013-09-22 16:43:00,67.0,41.0,-100.00,SW,232,20.0,25.0,39,0.00,,,0.00,,2013-09-22 22:43:00,
2013-09-22 16:53:00,67.0,41.0,-100.00,SW,232,20.0,25.0,39,0.00,,,0.00,,2013-09-22 22:53:00,
2013-09-22 17:12:00,67.0,41.0,-100.00,SW,224,20.0,25.0,38,0.00,,,0.00,,2013-09-22 23:12:00,